sensor_id;sensor_type;location;lat;lon;timestamp;P1;durP1;ratioP1;P2;durP2;ratioP2
79585;SDS011;69054;50.866;4.636;2023-06-22T00:00:55;9.13;;;6.40;;
79585;SDS011;69054;50.866;4.636;2023-06-22T00:03:21;8.68;;;6.40;;
79585;SDS011;69054;50.866;4.636;2023-06-22T00:05:48;7.47;;;5.63;;
79585;SDS011;69054;50.866;4.636;2023-06-22T00:08:14;8.90;;;6.03;;
79585;SDS011;69054;50.866;4.636;2023-06-22T00:10:40;10.27;;;6.07;;
79585;SDS011;69054;50.866;4.636;2023-06-22T00:13:06;9.77;;;6.22;;
79585;SDS011;69054;50.866;4.636;2023-06-22T00:15:32;10.13;;;6.07;;
79585;SDS011;69054;50.866;4.636;2023-06-22T00:17:58;8.80;;;6.13;;
79585;SDS011;69054;50.866;4.636;2023-06-22T00:20:24;10.55;;;6.68;;
79585;SDS011;69054;50.866;4.636;2023-06-22T00:22:52;9.52;;;6.65;;
79585;SDS011;69054;50.866;4.636;2023-06-22T00:25:22;10.63;;;6.85;;
79585;SDS011;69054;50.866;4.636;2023-06-22T00:27:48;9.82;;;6.68;;
79585;SDS011;69054;50.866;4.636;2023-06-22T00:30:15;10.05;;;7.28;;
79585;SDS011;69054;50.866;4.636;2023-06-22T00:32:42;9.80;;;6.60;;
79585;SDS011;69054;50.866;4.636;2023-06-22T00:35:08;9.27;;;6.80;;
79585;SDS011;69054;50.866;4.636;2023-06-22T00:37:35;9.50;;;6.93;;
79585;SDS011;69054;50.866;4.636;2023-06-22T00:40:01;12.20;;;6.88;;
79585;SDS011;69054;50.866;4.636;2023-06-22T00:42:27;8.98;;;7.00;;
79585;SDS011;69054;50.866;4.636;2023-06-22T00:44:52;8.63;;;6.38;;
79585;SDS011;69054;50.866;4.636;2023-06-22T00:47:17;10.70;;;6.90;;
79585;SDS011;69054;50.866;4.636;2023-06-22T00:49:43;11.00;;;7.15;;
79585;SDS011;69054;50.866;4.636;2023-06-22T00:52:10;9.63;;;6.93;;
79585;SDS011;69054;50.866;4.636;2023-06-22T00:54:39;9.13;;;6.47;;
79585;SDS011;69054;50.866;4.636;2023-06-22T00:57:13;8.77;;;5.72;;
79585;SDS011;69054;50.866;4.636;2023-06-22T00:59:42;8.32;;;6.07;;
79585;SDS011;69054;50.866;4.636;2023-06-22T01:02:07;10.10;;;7.10;;
79585;SDS011;69054;50.866;4.636;2023-06-22T01:04:34;10.95;;;7.03;;
79585;SDS011;69054;50.866;4.636;2023-06-22T01:12:18;12.23;;;6.63;;
79585;SDS011;69054;50.866;4.636;2023-06-22T01:14:50;8.30;;;6.10;;
79585;SDS011;69054;50.866;4.636;2023-06-22T01:17:20;11.00;;;6.18;;
79585;SDS011;69054;50.866;4.636;2023-06-22T01:19:48;8.65;;;6.30;;
79585;SDS011;69054;50.866;4.636;2023-06-22T01:22:21;9.13;;;6.55;;
79585;SDS011;69054;50.866;4.636;2023-06-22T01:27:33;10.00;;;6.13;;
79585;SDS011;69054;50.866;4.636;2023-06-22T01:30:10;8.77;;;6.18;;
79585;SDS011;69054;50.866;4.636;2023-06-22T01:32:39;9.98;;;6.07;;
79585;SDS011;69054;50.866;4.636;2023-06-22T01:35:06;8.68;;;6.43;;
79585;SDS011;69054;50.866;4.636;2023-06-22T01:37:34;10.77;;;7.10;;
79585;SDS011;69054;50.866;4.636;2023-06-22T01:40:01;10.10;;;6.57;;
79585;SDS011;69054;50.866;4.636;2023-06-22T01:42:28;9.95;;;7.00;;
79585;SDS011;69054;50.866;4.636;2023-06-22T01:44:54;9.25;;;6.32;;
79585;SDS011;69054;50.866;4.636;2023-06-22T01:47:21;8.35;;;6.07;;
79585;SDS011;69054;50.866;4.636;2023-06-22T01:49:47;12.93;;;6.88;;
79585;SDS011;69054;50.866;4.636;2023-06-22T01:52:14;9.13;;;6.30;;
79585;SDS011;69054;50.866;4.636;2023-06-22T01:54:40;9.77;;;6.70;;
79585;SDS011;69054;50.866;4.636;2023-06-22T01:57:06;8.85;;;6.80;;
79585;SDS011;69054;50.866;4.636;2023-06-22T01:59:34;8.85;;;6.32;;
79585;SDS011;69054;50.866;4.636;2023-06-22T02:02:09;11.02;;;6.57;;
79585;SDS011;69054;50.866;4.636;2023-06-22T02:07:12;10.20;;;7.13;;
79585;SDS011;69054;50.866;4.636;2023-06-22T02:09:39;11.38;;;6.50;;
79585;SDS011;69054;50.866;4.636;2023-06-22T02:12:09;11.70;;;6.90;;
79585;SDS011;69054;50.866;4.636;2023-06-22T02:14:37;8.98;;;6.15;;
79585;SDS011;69054;50.866;4.636;2023-06-22T02:17:04;10.88;;;7.15;;
79585;SDS011;69054;50.866;4.636;2023-06-22T02:19:32;9.73;;;6.20;;
79585;SDS011;69054;50.866;4.636;2023-06-22T02:22:01;13.25;;;8.00;;
79585;SDS011;69054;50.866;4.636;2023-06-22T02:24:26;9.38;;;6.63;;
79585;SDS011;69054;50.866;4.636;2023-06-22T02:26:51;10.48;;;7.30;;
79585;SDS011;69054;50.866;4.636;2023-06-22T02:29:17;10.70;;;7.03;;
79585;SDS011;69054;50.866;4.636;2023-06-22T02:31:42;11.18;;;7.90;;
79585;SDS011;69054;50.866;4.636;2023-06-22T02:34:08;11.73;;;6.90;;
79585;SDS011;69054;50.866;4.636;2023-06-22T02:36:33;11.77;;;7.13;;
79585;SDS011;69054;50.866;4.636;2023-06-22T02:38:59;11.13;;;7.05;;
79585;SDS011;69054;50.866;4.636;2023-06-22T02:41:26;9.50;;;6.75;;
79585;SDS011;69054;50.866;4.636;2023-06-22T02:43:52;11.25;;;7.40;;
79585;SDS011;69054;50.866;4.636;2023-06-22T02:46:17;10.93;;;7.65;;
79585;SDS011;69054;50.866;4.636;2023-06-22T02:48:42;12.18;;;7.28;;
79585;SDS011;69054;50.866;4.636;2023-06-22T02:51:08;11.43;;;7.68;;
79585;SDS011;69054;50.866;4.636;2023-06-22T02:53:33;10.90;;;7.05;;
79585;SDS011;69054;50.866;4.636;2023-06-22T02:56:00;9.63;;;6.78;;
79585;SDS011;69054;50.866;4.636;2023-06-22T02:58:26;11.10;;;7.43;;
79585;SDS011;69054;50.866;4.636;2023-06-22T03:00:52;13.45;;;7.72;;
79585;SDS011;69054;50.866;4.636;2023-06-22T03:03:18;11.85;;;7.03;;
79585;SDS011;69054;50.866;4.636;2023-06-22T03:05:44;10.35;;;6.80;;
79585;SDS011;69054;50.866;4.636;2023-06-22T03:08:10;11.27;;;7.18;;
79585;SDS011;69054;50.866;4.636;2023-06-22T03:10:35;15.15;;;8.35;;
79585;SDS011;69054;50.866;4.636;2023-06-22T03:13:01;10.38;;;7.22;;
79585;SDS011;69054;50.866;4.636;2023-06-22T03:15:26;13.27;;;8.05;;
79585;SDS011;69054;50.866;4.636;2023-06-22T03:17:54;11.32;;;7.13;;
79585;SDS011;69054;50.866;4.636;2023-06-22T03:20:20;12.75;;;8.13;;
79585;SDS011;69054;50.866;4.636;2023-06-22T03:22:45;10.85;;;7.80;;
79585;SDS011;69054;50.866;4.636;2023-06-22T03:25:11;11.90;;;7.57;;
79585;SDS011;69054;50.866;4.636;2023-06-22T03:27:38;11.18;;;7.28;;
79585;SDS011;69054;50.866;4.636;2023-06-22T03:30:07;10.88;;;8.13;;
79585;SDS011;69054;50.866;4.636;2023-06-22T03:32:34;11.48;;;7.45;;
79585;SDS011;69054;50.866;4.636;2023-06-22T03:35:00;11.43;;;7.20;;
79585;SDS011;69054;50.866;4.636;2023-06-22T03:37:25;10.52;;;7.15;;
79585;SDS011;69054;50.866;4.636;2023-06-22T03:39:52;12.75;;;7.60;;
79585;SDS011;69054;50.866;4.636;2023-06-22T03:42:17;13.73;;;8.13;;
79585;SDS011;69054;50.866;4.636;2023-06-22T03:44:43;10.13;;;7.10;;
79585;SDS011;69054;50.866;4.636;2023-06-22T03:47:08;10.90;;;7.68;;
79585;SDS011;69054;50.866;4.636;2023-06-22T03:49:34;12.10;;;7.72;;
79585;SDS011;69054;50.866;4.636;2023-06-22T03:52:00;12.48;;;7.93;;
79585;SDS011;69054;50.866;4.636;2023-06-22T03:54:26;10.63;;;7.15;;
79585;SDS011;69054;50.866;4.636;2023-06-22T03:56:52;12.45;;;8.32;;
79585;SDS011;69054;50.866;4.636;2023-06-22T03:59:18;10.13;;;7.50;;
79585;SDS011;69054;50.866;4.636;2023-06-22T04:01:43;12.07;;;8.32;;
79585;SDS011;69054;50.866;4.636;2023-06-22T04:04:09;13.95;;;8.38;;
79585;SDS011;69054;50.866;4.636;2023-06-22T04:06:34;11.07;;;7.70;;
79585;SDS011;69054;50.866;4.636;2023-06-22T04:09:00;13.43;;;8.10;;
79585;SDS011;69054;50.866;4.636;2023-06-22T04:11:25;11.63;;;7.85;;
79585;SDS011;69054;50.866;4.636;2023-06-22T04:13:51;11.52;;;7.72;;
79585;SDS011;69054;50.866;4.636;2023-06-22T04:16:16;11.57;;;7.50;;
79585;SDS011;69054;50.866;4.636;2023-06-22T04:18:42;12.88;;;8.70;;
79585;SDS011;69054;50.866;4.636;2023-06-22T04:21:07;12.40;;;8.32;;
79585;SDS011;69054;50.866;4.636;2023-06-22T04:23:32;15.00;;;8.50;;
79585;SDS011;69054;50.866;4.636;2023-06-22T04:25:58;11.57;;;8.32;;
79585;SDS011;69054;50.866;4.636;2023-06-22T04:28:24;13.65;;;9.05;;
79585;SDS011;69054;50.866;4.636;2023-06-22T04:30:49;12.68;;;7.68;;
79585;SDS011;69054;50.866;4.636;2023-06-22T04:33:16;12.73;;;8.68;;
79585;SDS011;69054;50.866;4.636;2023-06-22T04:35:41;11.15;;;8.25;;
79585;SDS011;69054;50.866;4.636;2023-06-22T04:38:12;12.70;;;8.63;;
79585;SDS011;69054;50.866;4.636;2023-06-22T04:40:41;13.68;;;8.40;;
79585;SDS011;69054;50.866;4.636;2023-06-22T04:43:06;12.43;;;8.95;;
79585;SDS011;69054;50.866;4.636;2023-06-22T04:45:32;13.40;;;8.98;;
79585;SDS011;69054;50.866;4.636;2023-06-22T04:47:58;13.77;;;9.10;;
79585;SDS011;69054;50.866;4.636;2023-06-22T04:50:23;12.38;;;8.98;;
79585;SDS011;69054;50.866;4.636;2023-06-22T04:52:49;15.15;;;8.60;;
79585;SDS011;69054;50.866;4.636;2023-06-22T04:55:15;13.68;;;9.20;;
79585;SDS011;69054;50.866;4.636;2023-06-22T04:57:45;12.10;;;8.52;;
79585;SDS011;69054;50.866;4.636;2023-06-22T05:00:14;15.65;;;9.05;;
79585;SDS011;69054;50.866;4.636;2023-06-22T05:02:42;13.70;;;9.18;;
79585;SDS011;69054;50.866;4.636;2023-06-22T05:05:08;15.25;;;9.65;;
79585;SDS011;69054;50.866;4.636;2023-06-22T05:07:34;14.60;;;9.35;;
79585;SDS011;69054;50.866;4.636;2023-06-22T05:10:00;13.02;;;8.93;;
79585;SDS011;69054;50.866;4.636;2023-06-22T05:12:27;11.55;;;8.32;;
79585;SDS011;69054;50.866;4.636;2023-06-22T05:14:53;11.70;;;8.40;;
79585;SDS011;69054;50.866;4.636;2023-06-22T05:17:19;13.90;;;8.73;;
79585;SDS011;69054;50.866;4.636;2023-06-22T05:19:44;11.23;;;7.97;;
79585;SDS011;69054;50.866;4.636;2023-06-22T05:22:13;13.70;;;9.13;;
79585;SDS011;69054;50.866;4.636;2023-06-22T05:24:42;12.52;;;9.10;;
79585;SDS011;69054;50.866;4.636;2023-06-22T05:27:09;12.15;;;9.30;;
79585;SDS011;69054;50.866;4.636;2023-06-22T05:29:35;15.30;;;9.18;;
79585;SDS011;69054;50.866;4.636;2023-06-22T05:32:01;11.73;;;7.80;;
79585;SDS011;69054;50.866;4.636;2023-06-22T05:34:27;14.23;;;9.05;;
79585;SDS011;69054;50.866;4.636;2023-06-22T05:36:52;11.18;;;7.85;;
79585;SDS011;69054;50.866;4.636;2023-06-22T05:39:18;11.40;;;7.75;;
79585;SDS011;69054;50.866;4.636;2023-06-22T05:41:45;13.30;;;9.63;;
79585;SDS011;69054;50.866;4.636;2023-06-22T05:44:11;13.85;;;9.23;;
79585;SDS011;69054;50.866;4.636;2023-06-22T05:46:40;14.45;;;10.13;;
79585;SDS011;69054;50.866;4.636;2023-06-22T05:49:09;12.60;;;8.77;;
79585;SDS011;69054;50.866;4.636;2023-06-22T05:51:35;13.30;;;9.88;;
79585;SDS011;69054;50.866;4.636;2023-06-22T05:54:00;12.63;;;9.45;;
79585;SDS011;69054;50.866;4.636;2023-06-22T05:56:25;14.85;;;9.88;;
79585;SDS011;69054;50.866;4.636;2023-06-22T05:58:51;13.50;;;9.57;;
79585;SDS011;69054;50.866;4.636;2023-06-22T06:01:16;14.75;;;9.82;;
79585;SDS011;69054;50.866;4.636;2023-06-22T06:03:42;14.27;;;9.38;;
79585;SDS011;69054;50.866;4.636;2023-06-22T06:06:07;13.25;;;9.38;;
79585;SDS011;69054;50.866;4.636;2023-06-22T06:08:33;15.73;;;10.73;;
79585;SDS011;69054;50.866;4.636;2023-06-22T06:10:58;17.65;;;10.65;;
79585;SDS011;69054;50.866;4.636;2023-06-22T06:13:23;16.58;;;10.63;;
79585;SDS011;69054;50.866;4.636;2023-06-22T06:15:49;18.73;;;10.43;;
79585;SDS011;69054;50.866;4.636;2023-06-22T06:18:16;14.27;;;10.40;;
79585;SDS011;69054;50.866;4.636;2023-06-22T06:20:42;14.95;;;9.55;;
79585;SDS011;69054;50.866;4.636;2023-06-22T06:23:07;15.95;;;10.25;;
79585;SDS011;69054;50.866;4.636;2023-06-22T06:25:33;14.55;;;10.80;;
79585;SDS011;69054;50.866;4.636;2023-06-22T06:27:58;14.93;;;10.65;;
79585;SDS011;69054;50.866;4.636;2023-06-22T06:30:24;15.60;;;10.93;;
79585;SDS011;69054;50.866;4.636;2023-06-22T06:32:49;16.45;;;10.50;;
79585;SDS011;69054;50.866;4.636;2023-06-22T06:35:15;14.32;;;10.60;;
79585;SDS011;69054;50.866;4.636;2023-06-22T06:37:42;17.92;;;11.65;;
79585;SDS011;69054;50.866;4.636;2023-06-22T06:40:08;14.85;;;10.15;;
79585;SDS011;69054;50.866;4.636;2023-06-22T06:42:38;16.55;;;10.80;;
79585;SDS011;69054;50.866;4.636;2023-06-22T06:45:09;18.67;;;11.20;;
79585;SDS011;69054;50.866;4.636;2023-06-22T06:47:35;14.90;;;10.82;;
79585;SDS011;69054;50.866;4.636;2023-06-22T06:50:00;15.27;;;10.80;;
79585;SDS011;69054;50.866;4.636;2023-06-22T06:52:27;14.77;;;11.73;;
79585;SDS011;69054;50.866;4.636;2023-06-22T06:54:52;16.73;;;11.32;;
79585;SDS011;69054;50.866;4.636;2023-06-22T06:57:18;15.18;;;11.45;;
79585;SDS011;69054;50.866;4.636;2023-06-22T06:59:45;19.27;;;12.27;;
79585;SDS011;69054;50.866;4.636;2023-06-22T07:02:11;15.57;;;11.95;;
79585;SDS011;69054;50.866;4.636;2023-06-22T07:04:36;18.48;;;12.43;;
79585;SDS011;69054;50.866;4.636;2023-06-22T07:07:02;16.23;;;11.88;;
79585;SDS011;69054;50.866;4.636;2023-06-22T07:09:28;13.93;;;11.65;;
79585;SDS011;69054;50.866;4.636;2023-06-22T07:11:53;16.02;;;11.82;;
79585;SDS011;69054;50.866;4.636;2023-06-22T07:14:19;19.92;;;12.23;;
79585;SDS011;69054;50.866;4.636;2023-06-22T07:16:44;15.00;;;11.38;;
79585;SDS011;69054;50.866;4.636;2023-06-22T07:19:11;19.33;;;12.13;;
79585;SDS011;69054;50.866;4.636;2023-06-22T07:21:37;18.38;;;12.07;;
79585;SDS011;69054;50.866;4.636;2023-06-22T07:24:02;17.25;;;12.63;;
79585;SDS011;69054;50.866;4.636;2023-06-22T07:26:30;17.42;;;11.48;;
79585;SDS011;69054;50.866;4.636;2023-06-22T07:28:56;16.17;;;12.10;;
79585;SDS011;69054;50.866;4.636;2023-06-22T07:31:23;15.48;;;11.57;;
79585;SDS011;69054;50.866;4.636;2023-06-22T07:33:49;16.77;;;11.25;;
79585;SDS011;69054;50.866;4.636;2023-06-22T07:36:16;15.75;;;11.82;;
79585;SDS011;69054;50.866;4.636;2023-06-22T07:38:43;14.30;;;10.70;;
79585;SDS011;69054;50.866;4.636;2023-06-22T07:41:09;13.18;;;10.45;;
79585;SDS011;69054;50.866;4.636;2023-06-22T07:43:34;13.07;;;10.40;;
79585;SDS011;69054;50.866;4.636;2023-06-22T07:46:02;20.08;;;10.90;;
79585;SDS011;69054;50.866;4.636;2023-06-22T07:48:30;20.52;;;12.85;;
79585;SDS011;69054;50.866;4.636;2023-06-22T07:50:56;15.27;;;10.38;;
79585;SDS011;69054;50.866;4.636;2023-06-22T07:53:21;13.35;;;10.27;;
79585;SDS011;69054;50.866;4.636;2023-06-22T07:55:48;14.35;;;10.50;;
79585;SDS011;69054;50.866;4.636;2023-06-22T07:58:13;13.30;;;10.00;;
79585;SDS011;69054;50.866;4.636;2023-06-22T08:00:39;14.38;;;10.15;;
79585;SDS011;69054;50.866;4.636;2023-06-22T08:03:04;13.25;;;9.55;;
79585;SDS011;69054;50.866;4.636;2023-06-22T08:05:30;13.98;;;10.32;;
79585;SDS011;69054;50.866;4.636;2023-06-22T08:07:56;14.95;;;11.25;;
79585;SDS011;69054;50.866;4.636;2023-06-22T08:10:21;13.57;;;10.02;;
79585;SDS011;69054;50.866;4.636;2023-06-22T08:12:47;12.48;;;10.00;;
79585;SDS011;69054;50.866;4.636;2023-06-22T08:15:12;11.80;;;9.80;;
79585;SDS011;69054;50.866;4.636;2023-06-22T08:17:38;15.57;;;11.10;;
79585;SDS011;69054;50.866;4.636;2023-06-22T08:20:05;14.05;;;10.27;;
79585;SDS011;69054;50.866;4.636;2023-06-22T08:22:37;16.80;;;11.05;;
79585;SDS011;69054;50.866;4.636;2023-06-22T08:25:03;14.18;;;10.40;;
79585;SDS011;69054;50.866;4.636;2023-06-22T08:27:29;23.08;;;12.50;;
79585;SDS011;69054;50.866;4.636;2023-06-22T08:29:57;17.50;;;11.32;;
79585;SDS011;69054;50.866;4.636;2023-06-22T08:32:24;14.60;;;10.05;;
79585;SDS011;69054;50.866;4.636;2023-06-22T08:34:51;11.90;;;9.20;;
79585;SDS011;69054;50.866;4.636;2023-06-22T08:37:17;10.38;;;9.13;;
79585;SDS011;69054;50.866;4.636;2023-06-22T08:39:42;13.25;;;9.20;;
79585;SDS011;69054;50.866;4.636;2023-06-22T08:42:08;13.48;;;9.70;;
79585;SDS011;69054;50.866;4.636;2023-06-22T08:44:33;12.90;;;9.50;;
79585;SDS011;69054;50.866;4.636;2023-06-22T08:46:58;11.63;;;8.35;;
79585;SDS011;69054;50.866;4.636;2023-06-22T08:49:24;12.02;;;9.50;;
79585;SDS011;69054;50.866;4.636;2023-06-22T08:51:49;11.40;;;8.02;;
79585;SDS011;69054;50.866;4.636;2023-06-22T08:54:17;10.60;;;8.48;;
79585;SDS011;69054;50.866;4.636;2023-06-22T08:56:42;9.55;;;7.75;;
79585;SDS011;69054;50.866;4.636;2023-06-22T08:59:09;10.60;;;8.18;;
79585;SDS011;69054;50.866;4.636;2023-06-22T09:01:34;13.05;;;8.77;;
79585;SDS011;69054;50.866;4.636;2023-06-22T09:03:59;12.38;;;8.85;;
79585;SDS011;69054;50.866;4.636;2023-06-22T09:06:25;11.68;;;8.63;;
79585;SDS011;69054;50.866;4.636;2023-06-22T09:08:50;13.18;;;9.60;;
79585;SDS011;69054;50.866;4.636;2023-06-22T09:11:16;13.40;;;10.25;;
79585;SDS011;69054;50.866;4.636;2023-06-22T09:13:41;11.80;;;9.40;;
79585;SDS011;69054;50.866;4.636;2023-06-22T09:16:07;12.40;;;9.65;;
79585;SDS011;69054;50.866;4.636;2023-06-22T09:18:36;12.77;;;9.80;;
79585;SDS011;69054;50.866;4.636;2023-06-22T09:21:01;12.80;;;9.93;;
79585;SDS011;69054;50.866;4.636;2023-06-22T09:23:27;11.60;;;8.88;;
79585;SDS011;69054;50.866;4.636;2023-06-22T09:25:52;13.20;;;9.45;;
79585;SDS011;69054;50.866;4.636;2023-06-22T09:28:18;13.88;;;10.70;;
79585;SDS011;69054;50.866;4.636;2023-06-22T09:30:43;13.50;;;10.18;;
79585;SDS011;69054;50.866;4.636;2023-06-22T09:33:11;13.60;;;10.27;;
79585;SDS011;69054;50.866;4.636;2023-06-22T09:35:37;16.90;;;11.02;;
79585;SDS011;69054;50.866;4.636;2023-06-22T09:38:02;16.77;;;10.80;;
79585;SDS011;69054;50.866;4.636;2023-06-22T09:40:27;19.98;;;11.52;;
79585;SDS011;69054;50.866;4.636;2023-06-22T09:42:53;16.35;;;10.85;;
79585;SDS011;69054;50.866;4.636;2023-06-22T09:45:18;16.67;;;11.55;;
79585;SDS011;69054;50.866;4.636;2023-06-22T09:47:44;17.42;;;12.75;;
79585;SDS011;69054;50.866;4.636;2023-06-22T09:50:09;19.17;;;13.18;;
79585;SDS011;69054;50.866;4.636;2023-06-22T09:52:35;19.00;;;12.68;;
79585;SDS011;69054;50.866;4.636;2023-06-22T09:55:00;19.17;;;12.77;;
79585;SDS011;69054;50.866;4.636;2023-06-22T09:57:25;18.75;;;12.32;;
79585;SDS011;69054;50.866;4.636;2023-06-22T09:59:51;24.67;;;15.27;;
79585;SDS011;69054;50.866;4.636;2023-06-22T10:02:16;22.63;;;14.32;;
79585;SDS011;69054;50.866;4.636;2023-06-22T10:04:42;23.00;;;16.45;;
79585;SDS011;69054;50.866;4.636;2023-06-22T10:07:07;18.98;;;13.55;;
79585;SDS011;69054;50.866;4.636;2023-06-22T10:09:33;24.38;;;16.67;;
79585;SDS011;69054;50.866;4.636;2023-06-22T10:11:58;21.95;;;15.02;;
79585;SDS011;69054;50.866;4.636;2023-06-22T10:14:23;19.10;;;13.15;;
79585;SDS011;69054;50.866;4.636;2023-06-22T10:16:51;23.30;;;15.70;;
79585;SDS011;69054;50.866;4.636;2023-06-22T10:19:17;22.17;;;14.43;;
79585;SDS011;69054;50.866;4.636;2023-06-22T10:21:42;20.70;;;14.13;;
79585;SDS011;69054;50.866;4.636;2023-06-22T10:24:08;20.10;;;15.60;;
79585;SDS011;69054;50.866;4.636;2023-06-22T10:26:34;20.15;;;14.82;;
79585;SDS011;69054;50.866;4.636;2023-06-22T10:29:01;21.58;;;14.82;;
79585;SDS011;69054;50.866;4.636;2023-06-22T10:31:27;22.38;;;15.77;;
79585;SDS011;69054;50.866;4.636;2023-06-22T10:33:53;25.02;;;17.10;;
79585;SDS011;69054;50.866;4.636;2023-06-22T10:36:18;22.35;;;16.48;;
79585;SDS011;69054;50.866;4.636;2023-06-22T10:38:44;22.90;;;16.55;;
79585;SDS011;69054;50.866;4.636;2023-06-22T10:41:10;20.83;;;15.95;;
79585;SDS011;69054;50.866;4.636;2023-06-22T10:43:35;24.45;;;16.85;;
79585;SDS011;69054;50.866;4.636;2023-06-22T10:46:01;26.25;;;17.60;;
79585;SDS011;69054;50.866;4.636;2023-06-22T10:48:26;26.33;;;18.00;;
79585;SDS011;69054;50.866;4.636;2023-06-22T10:50:52;25.08;;;17.20;;
79585;SDS011;69054;50.866;4.636;2023-06-22T10:53:18;24.58;;;17.20;;
79585;SDS011;69054;50.866;4.636;2023-06-22T10:55:43;25.55;;;17.40;;
79585;SDS011;69054;50.866;4.636;2023-06-22T10:58:09;22.95;;;16.30;;
79585;SDS011;69054;50.866;4.636;2023-06-22T11:00:34;27.27;;;17.88;;
79585;SDS011;69054;50.866;4.636;2023-06-22T11:02:59;27.05;;;17.15;;
79585;SDS011;69054;50.866;4.636;2023-06-22T11:05:25;27.80;;;16.95;;
79585;SDS011;69054;50.866;4.636;2023-06-22T11:07:50;28.02;;;19.17;;
79585;SDS011;69054;50.866;4.636;2023-06-22T11:10:15;30.45;;;20.60;;
79585;SDS011;69054;50.866;4.636;2023-06-22T11:12:41;27.70;;;18.08;;
79585;SDS011;69054;50.866;4.636;2023-06-22T11:15:07;31.88;;;20.85;;
79585;SDS011;69054;50.866;4.636;2023-06-22T11:17:33;28.23;;;18.17;;
79585;SDS011;69054;50.866;4.636;2023-06-22T11:19:59;33.53;;;21.60;;
79585;SDS011;69054;50.866;4.636;2023-06-22T11:22:25;29.88;;;21.95;;
79585;SDS011;69054;50.866;4.636;2023-06-22T11:24:50;29.75;;;20.35;;
79585;SDS011;69054;50.866;4.636;2023-06-22T11:27:16;33.08;;;22.15;;
79585;SDS011;69054;50.866;4.636;2023-06-22T11:29:42;41.90;;;23.83;;
79585;SDS011;69054;50.866;4.636;2023-06-22T11:32:07;36.85;;;23.77;;
79585;SDS011;69054;50.866;4.636;2023-06-22T11:34:33;42.22;;;24.65;;
79585;SDS011;69054;50.866;4.636;2023-06-22T11:36:58;39.78;;;25.48;;
79585;SDS011;69054;50.866;4.636;2023-06-22T11:39:23;41.75;;;27.00;;
79585;SDS011;69054;50.866;4.636;2023-06-22T11:41:49;37.90;;;25.50;;
79585;SDS011;69054;50.866;4.636;2023-06-22T11:44:14;40.10;;;27.65;;
79585;SDS011;69054;50.866;4.636;2023-06-22T11:46:39;38.70;;;26.45;;
79585;SDS011;69054;50.866;4.636;2023-06-22T11:49:05;46.92;;;27.92;;
79585;SDS011;69054;50.866;4.636;2023-06-22T11:51:30;48.67;;;28.48;;
79585;SDS011;69054;50.866;4.636;2023-06-22T11:53:56;44.35;;;29.25;;
79585;SDS011;69054;50.866;4.636;2023-06-22T11:56:22;45.50;;;29.80;;
79585;SDS011;69054;50.866;4.636;2023-06-22T11:58:47;45.83;;;30.05;;
79585;SDS011;69054;50.866;4.636;2023-06-22T12:01:12;49.72;;;32.90;;
79585;SDS011;69054;50.866;4.636;2023-06-22T12:03:40;53.05;;;31.88;;
79585;SDS011;69054;50.866;4.636;2023-06-22T12:06:05;48.33;;;31.92;;
79585;SDS011;69054;50.866;4.636;2023-06-22T12:08:30;49.55;;;30.63;;
79585;SDS011;69054;50.866;4.636;2023-06-22T12:10:56;55.22;;;32.35;;
79585;SDS011;69054;50.866;4.636;2023-06-22T12:13:21;48.53;;;32.33;;
79585;SDS011;69054;50.866;4.636;2023-06-22T12:15:46;48.28;;;31.77;;
79585;SDS011;69054;50.866;4.636;2023-06-22T12:18:12;50.53;;;31.65;;
79585;SDS011;69054;50.866;4.636;2023-06-22T12:20:39;51.95;;;32.10;;
79585;SDS011;69054;50.866;4.636;2023-06-22T12:23:05;47.25;;;31.17;;
79585;SDS011;69054;50.866;4.636;2023-06-22T12:25:30;45.38;;;30.45;;
79585;SDS011;69054;50.866;4.636;2023-06-22T12:27:56;47.75;;;29.55;;
79585;SDS011;69054;50.866;4.636;2023-06-22T12:30:21;55.20;;;32.70;;
79585;SDS011;69054;50.866;4.636;2023-06-22T12:32:47;50.53;;;31.83;;
79585;SDS011;69054;50.866;4.636;2023-06-22T12:35:12;49.28;;;30.40;;
79585;SDS011;69054;50.866;4.636;2023-06-22T12:37:41;56.88;;;32.08;;
79585;SDS011;69054;50.866;4.636;2023-06-22T12:40:08;53.83;;;31.85;;
79585;SDS011;69054;50.866;4.636;2023-06-22T12:42:34;47.78;;;31.73;;
79585;SDS011;69054;50.866;4.636;2023-06-22T12:44:59;49.25;;;32.15;;
79585;SDS011;69054;50.866;4.636;2023-06-22T12:47:25;50.50;;;31.75;;
79585;SDS011;69054;50.866;4.636;2023-06-22T12:49:50;57.03;;;31.63;;
79585;SDS011;69054;50.866;4.636;2023-06-22T12:52:15;59.58;;;33.28;;
79585;SDS011;69054;50.866;4.636;2023-06-22T12:54:41;46.05;;;30.23;;
79585;SDS011;69054;50.866;4.636;2023-06-22T12:57:06;42.30;;;25.80;;
79585;SDS011;69054;50.866;4.636;2023-06-22T12:59:31;53.17;;;31.38;;
79585;SDS011;69054;50.866;4.636;2023-06-22T13:01:57;50.30;;;31.25;;
79585;SDS011;69054;50.866;4.636;2023-06-22T13:04:22;49.53;;;31.38;;
79585;SDS011;69054;50.866;4.636;2023-06-22T13:06:48;46.75;;;30.20;;
79585;SDS011;69054;50.866;4.636;2023-06-22T13:09:14;47.40;;;30.15;;
79585;SDS011;69054;50.866;4.636;2023-06-22T13:11:40;48.83;;;29.55;;
79585;SDS011;69054;50.866;4.636;2023-06-22T13:14:06;48.40;;;31.05;;
79585;SDS011;69054;50.866;4.636;2023-06-22T13:16:31;49.15;;;31.38;;
79585;SDS011;69054;50.866;4.636;2023-06-22T13:18:57;49.30;;;30.13;;
79585;SDS011;69054;50.866;4.636;2023-06-22T13:21:22;50.35;;;31.35;;
79585;SDS011;69054;50.866;4.636;2023-06-22T13:23:47;54.92;;;32.97;;
79585;SDS011;69054;50.866;4.636;2023-06-22T13:26:13;53.55;;;33.33;;
79585;SDS011;69054;50.866;4.636;2023-06-22T13:28:38;54.88;;;33.53;;
79585;SDS011;69054;50.866;4.636;2023-06-22T13:31:03;55.97;;;34.28;;
79585;SDS011;69054;50.866;4.636;2023-06-22T13:33:29;55.15;;;32.95;;
79585;SDS011;69054;50.866;4.636;2023-06-22T13:35:54;57.25;;;33.60;;
79585;SDS011;69054;50.866;4.636;2023-06-22T13:38:20;58.22;;;34.60;;
79585;SDS011;69054;50.866;4.636;2023-06-22T13:40:45;62.28;;;35.28;;
79585;SDS011;69054;50.866;4.636;2023-06-22T13:43:12;57.88;;;35.70;;
79585;SDS011;69054;50.866;4.636;2023-06-22T13:45:38;62.75;;;34.65;;
79585;SDS011;69054;50.866;4.636;2023-06-22T13:48:03;59.70;;;36.63;;
79585;SDS011;69054;50.866;4.636;2023-06-22T13:50:28;57.08;;;33.90;;
79585;SDS011;69054;50.866;4.636;2023-06-22T13:52:55;57.42;;;36.10;;
79585;SDS011;69054;50.866;4.636;2023-06-22T13:55:20;55.10;;;34.03;;
79585;SDS011;69054;50.866;4.636;2023-06-22T13:57:46;60.72;;;36.40;;
79585;SDS011;69054;50.866;4.636;2023-06-22T14:00:12;61.88;;;37.65;;
79585;SDS011;69054;50.866;4.636;2023-06-22T14:02:38;56.72;;;34.72;;
79585;SDS011;69054;50.866;4.636;2023-06-22T14:05:05;54.92;;;33.70;;
79585;SDS011;69054;50.866;4.636;2023-06-22T14:07:31;59.20;;;34.95;;
79585;SDS011;69054;50.866;4.636;2023-06-22T14:09:56;55.88;;;33.70;;
79585;SDS011;69054;50.866;4.636;2023-06-22T14:12:22;54.03;;;32.70;;
79585;SDS011;69054;50.866;4.636;2023-06-22T14:14:48;56.80;;;34.38;;
79585;SDS011;69054;50.866;4.636;2023-06-22T14:17:13;45.70;;;27.67;;
79585;SDS011;69054;50.866;4.636;2023-06-22T14:19:38;50.85;;;31.77;;
79585;SDS011;69054;50.866;4.636;2023-06-22T14:22:04;55.13;;;33.92;;
79585;SDS011;69054;50.866;4.636;2023-06-22T14:24:29;56.97;;;33.50;;
79585;SDS011;69054;50.866;4.636;2023-06-22T14:26:55;51.75;;;34.05;;
79585;SDS011;69054;50.866;4.636;2023-06-22T14:29:24;55.13;;;35.10;;
79585;SDS011;69054;50.866;4.636;2023-06-22T14:34:15;50.43;;;32.20;;